KLRO/LRO METAR and TAF weather

Enter ICAO airport designator
Station Type Date Time Source
KLRO METAR 2019/02/16 07:15 UTC NOAA

KLRO 160715Z AUTO 00000KT 7SM CLR 13/13 A2984 RMK AO2


Station Type Date Time Source
KLRO Decoded METAR 2019/02/16 07:15 UTC NOAA

Station name not available
Feb 16, 2019 - 02:15 AM EST / 2019.02.16 0715 UTC
Wind: Calm:0
Visibility: 7 mile(s):0
Sky conditions: clear
Temperature: 55 F (13 C)
Dew Point: 55 F (13 C)
Relative Humidity: 100%
Pressure (altimeter): 29.84 in. Hg (1010 hPa)
ob: KLRO 160715Z AUTO 00000KT 7SM CLR 13/13 A2984 RMK AO2
cycle: 7

Station Type Date Time Source
KLRO TAF UTC NOAA

Error!


Example: see airport list